sensor_id;sensor_type;location;lat;lon;timestamp;pressure;altitude;pressure_sealevel;temperature;humidity
39309;BME280;26019;47.510;19.122;2022-11-20T00:09:49;99893.06;;;0.99;100.00
39309;BME280;26019;47.510;19.122;2022-11-20T00:20:14;99895.22;;;0.85;100.00
39309;BME280;26019;47.510;19.122;2022-11-20T00:30:16;99913.44;;;0.69;100.00
39309;BME280;26019;47.510;19.122;2022-11-20T00:40:18;99926.94;;;0.66;100.00
39309;BME280;26019;47.510;19.122;2022-11-20T00:50:19;99894.75;;;0.68;100.00
39309;BME280;26019;47.510;19.122;2022-11-20T01:00:22;99912.72;;;0.74;100.00
39309;BME280;26019;47.510;19.122;2022-11-20T01:10:24;99906.72;;;0.71;100.00
39309;BME280;26019;47.510;19.122;2022-11-20T01:20:25;99895.53;;;0.64;100.00
39309;BME280;26019;47.510;19.122;2022-11-20T01:30:28;99910.19;;;0.74;100.00
39309;BME280;26019;47.510;19.122;2022-11-20T01:40:29;99866.31;;;0.51;100.00
39309;BME280;26019;47.510;19.122;2022-11-20T01:50:58;99886.38;;;0.72;100.00
39309;BME280;26019;47.510;19.122;2022-11-20T02:01:03;99875.31;;;0.70;100.00
39309;BME280;26019;47.510;19.122;2022-11-20T02:11:06;99870.91;;;0.63;100.00
39309;BME280;26019;47.510;19.122;2022-11-20T02:31:38;99868.28;;;0.60;100.00
39309;BME280;26019;47.510;19.122;2022-11-20T02:41:41;99845.75;;;0.74;100.00
39309;BME280;26019;47.510;19.122;2022-11-20T02:51:44;99858.56;;;0.79;100.00
39309;BME280;26019;47.510;19.122;2022-11-20T03:01:45;99842.00;;;0.93;100.00
39309;BME280;26019;47.510;19.122;2022-11-20T03:11:49;99847.16;;;0.96;100.00
39309;BME280;26019;47.510;19.122;2022-11-20T03:21:50;99847.69;;;0.84;100.00
39309;BME280;26019;47.510;19.122;2022-11-20T03:31:52;99874.72;;;1.13;100.00
39309;BME280;26019;47.510;19.122;2022-11-20T03:41:54;99821.38;;;0.82;100.00
39309;BME280;26019;47.510;19.122;2022-11-20T03:51:59;99842.84;;;0.94;100.00
39309;BME280;26019;47.510;19.122;2022-11-20T04:02:09;99840.50;;;1.01;100.00
39309;BME280;26019;47.510;19.122;2022-11-20T04:12:12;99840.50;;;1.01;100.00
39309;BME280;26019;47.510;19.122;2022-11-20T04:22:13;99811.53;;;0.96;100.00
39309;BME280;26019;47.510;19.122;2022-11-20T04:32:15;99814.91;;;0.95;100.00
39309;BME280;26019;47.510;19.122;2022-11-20T04:42:17;99826.28;;;1.10;100.00
39309;BME280;26019;47.510;19.122;2022-11-20T04:52:30;99808.69;;;1.19;100.00
39309;BME280;26019;47.510;19.122;2022-11-20T05:02:41;99780.19;;;0.97;100.00
39309;BME280;26019;47.510;19.122;2022-11-20T05:12:44;99792.91;;;0.97;100.00
39309;BME280;26019;47.510;19.122;2022-11-20T05:22:45;99783.59;;;0.98;100.00
39309;BME280;26019;47.510;19.122;2022-11-20T05:32:48;99760.00;;;1.05;100.00
39309;BME280;26019;47.510;19.122;2022-11-20T05:42:50;99763.78;;;1.23;100.00
39309;BME280;26019;47.510;19.122;2022-11-20T05:52:52;99767.47;;;0.97;100.00
39309;BME280;26019;47.510;19.122;2022-11-20T06:02:54;99794.91;;;1.09;100.00
39309;BME280;26019;47.510;19.122;2022-11-20T06:12:57;99796.81;;;1.19;100.00
39309;BME280;26019;47.510;19.122;2022-11-20T06:23:30;99785.03;;;1.23;100.00
39309;BME280;26019;47.510;19.122;2022-11-20T06:33:42;99784.97;;;1.20;100.00
39309;BME280;26019;47.510;19.122;2022-11-20T06:43:45;99809.13;;;1.38;100.00
39309;BME280;26019;47.510;19.122;2022-11-20T06:53:49;99810.91;;;1.42;100.00
39309;BME280;26019;47.510;19.122;2022-11-20T07:04:17;99771.78;;;1.76;100.00
39309;BME280;26019;47.510;19.122;2022-11-20T07:14:19;99809.38;;;2.30;100.00
39309;BME280;26019;47.510;19.122;2022-11-20T07:24:23;99806.63;;;2.20;100.00
39309;BME280;26019;47.510;19.122;2022-11-20T07:34:30;99848.25;;;2.19;100.00
39309;BME280;26019;47.510;19.122;2022-11-20T07:44:33;99847.09;;;2.03;100.00
39309;BME280;26019;47.510;19.122;2022-11-20T07:54:35;99837.38;;;2.27;100.00
39309;BME280;26019;47.510;19.122;2022-11-20T08:04:37;99834.97;;;2.36;100.00
39309;BME280;26019;47.510;19.122;2022-11-20T08:14:44;99793.97;;;2.25;100.00
39309;BME280;26019;47.510;19.122;2022-11-20T08:24:46;99824.69;;;2.76;100.00
39309;BME280;26019;47.510;19.122;2022-11-20T08:34:50;99825.34;;;2.67;100.00
39309;BME280;26019;47.510;19.122;2022-11-20T08:44:59;99836.06;;;2.95;100.00
39309;BME280;26019;47.510;19.122;2022-11-20T08:55:08;99845.31;;;3.40;100.00
39309;BME280;26019;47.510;19.122;2022-11-20T09:05:12;99806.94;;;3.37;100.00
39309;BME280;26019;47.510;19.122;2022-11-20T09:15:23;99861.03;;;3.67;100.00
39309;BME280;26019;47.510;19.122;2022-11-20T09:25:27;99877.47;;;3.27;100.00
39309;BME280;26019;47.510;19.122;2022-11-20T09:35:34;99816.22;;;3.29;100.00
39309;BME280;26019;47.510;19.122;2022-11-20T09:56:12;99842.22;;;4.25;100.00
39309;BME280;26019;47.510;19.122;2022-11-20T10:38:52;99783.00;;;8.10;97.47
39309;BME280;26019;47.510;19.122;2022-11-20T10:48:58;99788.28;;;9.25;86.69
39309;BME280;26019;47.510;19.122;2022-11-20T11:09:20;99817.44;;;10.82;67.40
39309;BME280;26019;47.510;19.122;2022-11-20T11:19:25;99802.94;;;7.38;92.80
39309;BME280;26019;47.510;19.122;2022-11-20T11:29:30;99790.91;;;7.59;100.00
39309;BME280;26019;47.510;19.122;2022-11-20T11:39:33;99786.63;;;7.53;100.00
39309;BME280;26019;47.510;19.122;2022-11-20T11:49:35;99786.63;;;7.44;100.00
39309;BME280;26019;47.510;19.122;2022-11-20T12:00:12;99775.53;;;6.70;100.00
39309;BME280;26019;47.510;19.122;2022-11-20T12:10:23;99778.97;;;7.02;100.00
39309;BME280;26019;47.510;19.122;2022-11-20T12:20:35;99772.13;;;6.84;100.00
39309;BME280;26019;47.510;19.122;2022-11-20T12:31:02;99762.66;;;6.64;100.00
39309;BME280;26019;47.510;19.122;2022-11-20T12:52:18;99777.66;;;5.56;100.00
39309;BME280;26019;47.510;19.122;2022-11-20T13:12:46;99777.59;;;5.48;100.00
39309;BME280;26019;47.510;19.122;2022-11-20T13:22:53;99772.63;;;5.73;100.00
39309;BME280;26019;47.510;19.122;2022-11-20T13:33:25;99759.16;;;6.16;100.00
39309;BME280;26019;47.510;19.122;2022-11-20T13:43:37;99750.63;;;6.27;100.00
39309;BME280;26019;47.510;19.122;2022-11-20T13:53:55;99736.03;;;6.14;100.00
39309;BME280;26019;47.510;19.122;2022-11-20T14:04:06;99727.47;;;6.03;100.00
39309;BME280;26019;47.510;19.122;2022-11-20T14:14:17;99731.56;;;5.68;100.00
39309;BME280;26019;47.510;19.122;2022-11-20T14:24:22;99734.88;;;5.47;100.00
39309;BME280;26019;47.510;19.122;2022-11-20T14:34:29;99744.16;;;5.26;100.00
39309;BME280;26019;47.510;19.122;2022-11-20T14:44:37;99773.13;;;5.16;100.00
39309;BME280;26019;47.510;19.122;2022-11-20T14:54:44;99772.94;;;4.89;100.00
39309;BME280;26019;47.510;19.122;2022-11-20T15:04:51;99772.53;;;4.46;100.00
39309;BME280;26019;47.510;19.122;2022-11-20T15:14:53;99769.63;;;4.15;100.00
39309;BME280;26019;47.510;19.122;2022-11-20T15:24:57;99780.28;;;3.81;100.00
39309;BME280;26019;47.510;19.122;2022-11-20T15:35:00;99760.13;;;3.38;100.00
39309;BME280;26019;47.510;19.122;2022-11-20T15:45:04;99760.66;;;3.14;100.00
39309;BME280;26019;47.510;19.122;2022-11-20T15:55:09;99783.53;;;3.09;100.00
39309;BME280;26019;47.510;19.122;2022-11-20T16:05:14;99796.19;;;3.03;100.00
39309;BME280;26019;47.510;19.122;2022-11-20T16:15:24;99788.59;;;3.06;100.00
39309;BME280;26019;47.510;19.122;2022-11-20T16:25:56;99722.47;;;2.68;100.00
39309;BME280;26019;47.510;19.122;2022-11-20T16:36:19;99789.28;;;2.96;100.00
39309;BME280;26019;47.510;19.122;2022-11-20T16:46:30;99776.53;;;2.96;100.00
39309;BME280;26019;47.510;19.122;2022-11-20T16:56:35;99739.34;;;2.60;100.00
39309;BME280;26019;47.510;19.122;2022-11-20T17:06:40;99748.56;;;2.53;100.00
39309;BME280;26019;47.510;19.122;2022-11-20T17:16:58;99721.56;;;2.17;100.00
39309;BME280;26019;47.510;19.122;2022-11-20T17:27:07;99690.34;;;1.83;100.00
39309;BME280;26019;47.510;19.122;2022-11-20T17:37:12;99719.50;;;1.96;100.00
39309;BME280;26019;47.510;19.122;2022-11-20T17:47:15;99697.78;;;1.72;100.00
39309;BME280;26019;47.510;19.122;2022-11-20T17:57:23;99724.84;;;1.67;100.00
39309;BME280;26019;47.510;19.122;2022-11-20T18:07:43;99675.53;;;1.22;100.00
39309;BME280;26019;47.510;19.122;2022-11-20T18:17:46;99743.44;;;1.23;100.00
39309;BME280;26019;47.510;19.122;2022-11-20T18:27:50;99730.31;;;1.06;100.00
39309;BME280;26019;47.510;19.122;2022-11-20T18:37:53;99781.38;;;1.12;100.00
39309;BME280;26019;47.510;19.122;2022-11-20T18:48:02;99785.88;;;0.87;100.00
39309;BME280;26019;47.510;19.122;2022-11-20T18:58:04;99780.59;;;0.79;100.00
39309;BME280;26019;47.510;19.122;2022-11-20T19:08:06;99798.31;;;0.76;100.00
39309;BME280;26019;47.510;19.122;2022-11-20T19:18:12;99790.78;;;0.81;100.00
39309;BME280;26019;47.510;19.122;2022-11-20T19:28:15;99798.78;;;0.61;100.00
39309;BME280;26019;47.510;19.122;2022-11-20T19:38:22;99756.53;;;0.66;100.00
39309;BME280;26019;47.510;19.122;2022-11-20T19:48:37;99759.94;;;0.33;100.00
39309;BME280;26019;47.510;19.122;2022-11-20T19:58:43;99747.75;;;0.55;100.00
39309;BME280;26019;47.510;19.122;2022-11-20T20:08:57;99753.16;;;0.34;100.00
39309;BME280;26019;47.510;19.122;2022-11-20T20:19:02;99721.38;;;0.18;100.00
39309;BME280;26019;47.510;19.122;2022-11-20T20:29:05;99719.84;;;0.23;100.00
39309;BME280;26019;47.510;19.122;2022-11-20T20:39:09;99714.03;;;0.28;100.00
39309;BME280;26019;47.510;19.122;2022-11-20T20:49:14;99722.81;;;0.40;100.00
39309;BME280;26019;47.510;19.122;2022-11-20T20:59:15;99726.66;;;0.25;100.00
39309;BME280;26019;47.510;19.122;2022-11-20T21:09:18;99739.09;;;0.14;100.00
39309;BME280;26019;47.510;19.122;2022-11-20T21:19:21;99733.53;;;-0.04;100.00
39309;BME280;26019;47.510;19.122;2022-11-20T21:29:25;99718.75;;;-0.18;100.00
39309;BME280;26019;47.510;19.122;2022-11-20T21:39:29;99743.97;;;-0.24;100.00
39309;BME280;26019;47.510;19.122;2022-11-20T21:49:34;99735.59;;;-0.50;100.00
39309;BME280;26019;47.510;19.122;2022-11-20T21:59:37;99725.47;;;-0.49;100.00
39309;BME280;26019;47.510;19.122;2022-11-20T22:09:40;99727.41;;;-0.70;100.00
39309;BME280;26019;47.510;19.122;2022-11-20T22:19:41;99713.22;;;-0.62;100.00
39309;BME280;26019;47.510;19.122;2022-11-20T22:29:45;99703.06;;;-0.64;100.00
39309;BME280;26019;47.510;19.122;2022-11-20T22:39:47;99692.59;;;-0.74;100.00
39309;BME280;26019;47.510;19.122;2022-11-20T22:49:48;99683.88;;;-0.83;100.00
39309;BME280;26019;47.510;19.122;2022-11-20T22:59:52;99678.97;;;-1.06;100.00
39309;BME280;26019;47.510;19.122;2022-11-20T23:09:54;99678.81;;;-0.83;100.00
39309;BME280;26019;47.510;19.122;2022-11-20T23:19:55;99673.31;;;-0.97;100.00
39309;BME280;26019;47.510;19.122;2022-11-20T23:29:58;99655.38;;;-1.03;100.00
39309;BME280;26019;47.510;19.122;2022-11-20T23:40:00;99657.06;;;-1.03;100.00
39309;BME280;26019;47.510;19.122;2022-11-20T23:50:01;99645.72;;;-0.86;100.00
